sensor_id;sensor_type;location;lat;lon;timestamp;pressure;altitude;pressure_sealevel;temperature;humidity
11987;BME280;6053;51.382;6.768;2023-02-15T00:00:17;102559.88;;;8.52;92.83
11987;BME280;6053;51.382;6.768;2023-02-15T00:02:46;102563.47;;;8.44;91.81
11987;BME280;6053;51.382;6.768;2023-02-15T00:05:15;102565.19;;;8.37;93.69
11987;BME280;6053;51.382;6.768;2023-02-15T00:07:43;102552.81;;;8.49;93.08
11987;BME280;6053;51.382;6.768;2023-02-15T00:10:12;102554.72;;;8.49;92.56
11987;BME280;6053;51.382;6.768;2023-02-15T00:12:42;102546.97;;;8.36;91.75
11987;BME280;6053;51.382;6.768;2023-02-15T00:15:11;102543.53;;;8.50;92.27
11987;BME280;6053;51.382;6.768;2023-02-15T00:17:40;102545.63;;;8.40;92.83
11987;BME280;6053;51.382;6.768;2023-02-15T00:20:09;102546.63;;;8.47;92.45
11987;BME280;6053;51.382;6.768;2023-02-15T00:22:38;102543.38;;;8.44;92.79
11987;BME280;6053;51.382;6.768;2023-02-15T00:25:06;102544.56;;;8.41;92.82
11987;BME280;6053;51.382;6.768;2023-02-15T00:27:35;102545.47;;;8.42;92.70
11987;BME280;6053;51.382;6.768;2023-02-15T00:30:06;102541.47;;;8.53;92.40
11987;BME280;6053;51.382;6.768;2023-02-15T00:32:35;102540.09;;;8.24;92.94
11987;BME280;6053;51.382;6.768;2023-02-15T00:35:04;102540.78;;;8.34;92.73
11987;BME280;6053;51.382;6.768;2023-02-15T00:37:34;102537.00;;;8.27;92.79
11987;BME280;6053;51.382;6.768;2023-02-15T00:40:03;102538.22;;;8.33;92.69
11987;BME280;6053;51.382;6.768;2023-02-15T00:42:31;102534.59;;;8.32;92.01
11987;BME280;6053;51.382;6.768;2023-02-15T00:45:00;102534.78;;;8.22;92.39
11987;BME280;6053;51.382;6.768;2023-02-15T00:47:30;102531.16;;;8.30;92.52
11987;BME280;6053;51.382;6.768;2023-02-15T00:49:58;102531.16;;;8.30;92.88
11987;BME280;6053;51.382;6.768;2023-02-15T00:52:27;102529.63;;;8.36;90.22
11987;BME280;6053;51.382;6.768;2023-02-15T00:54:55;102525.50;;;8.07;91.42
11987;BME280;6053;51.382;6.768;2023-02-15T00:57:24;102531.19;;;8.06;93.64
11987;BME280;6053;51.382;6.768;2023-02-15T00:59:52;102521.38;;;8.11;93.79
11987;BME280;6053;51.382;6.768;2023-02-15T01:02:21;102523.44;;;8.17;91.94
11987;BME280;6053;51.382;6.768;2023-02-15T01:04:51;102525.50;;;7.91;93.82
11987;BME280;6053;51.382;6.768;2023-02-15T01:07:19;102530.50;;;8.12;94.04
11987;BME280;6053;51.382;6.768;2023-02-15T01:09:48;102526.72;;;8.13;92.69
11987;BME280;6053;51.382;6.768;2023-02-15T01:12:17;102525.50;;;8.15;93.40
11987;BME280;6053;51.382;6.768;2023-02-15T01:14:45;102531.34;;;8.12;93.04
11987;BME280;6053;51.382;6.768;2023-02-15T01:17:14;102533.75;;;8.15;93.03
11987;BME280;6053;51.382;6.768;2023-02-15T01:19:42;102530.47;;;8.20;92.99
11987;BME280;6053;51.382;6.768;2023-02-15T01:22:12;102535.47;;;8.16;92.70
11987;BME280;6053;51.382;6.768;2023-02-15T01:24:41;102528.94;;;8.17;92.52
11987;BME280;6053;51.382;6.768;2023-02-15T01:27:10;102526.19;;;8.17;92.72
11987;BME280;6053;51.382;6.768;2023-02-15T01:29:38;102522.44;;;8.18;92.30
11987;BME280;6053;51.382;6.768;2023-02-15T01:32:07;102519.28;;;8.21;92.34
11987;BME280;6053;51.382;6.768;2023-02-15T01:34:36;102519.00;;;8.08;92.54
11987;BME280;6053;51.382;6.768;2023-02-15T01:37:04;102522.75;;;8.07;92.93
11987;BME280;6053;51.382;6.768;2023-02-15T01:39:34;102517.94;;;7.93;93.39
11987;BME280;6053;51.382;6.768;2023-02-15T01:42:03;102515.53;;;7.98;92.75
11987;BME280;6053;51.382;6.768;2023-02-15T01:44:49;102505.09;;;8.01;93.67
11987;BME280;6053;51.382;6.768;2023-02-15T01:47:23;102511.59;;;8.09;93.13
11987;BME280;6053;51.382;6.768;2023-02-15T01:50:00;102506.78;;;8.02;92.52
11987;BME280;6053;51.382;6.768;2023-02-15T01:52:30;102510.19;;;8.04;92.78
11987;BME280;6053;51.382;6.768;2023-02-15T01:55:00;102506.44;;;7.97;92.91
11987;BME280;6053;51.382;6.768;2023-02-15T01:57:29;102503.69;;;7.97;93.19
11987;BME280;6053;51.382;6.768;2023-02-15T02:00:00;102509.19;;;7.97;93.24
11987;BME280;6053;51.382;6.768;2023-02-15T02:02:30;102502.16;;;7.78;91.48
11987;BME280;6053;51.382;6.768;2023-02-15T02:05:01;102489.28;;;7.95;93.18
11987;BME280;6053;51.382;6.768;2023-02-15T02:07:36;102494.25;;;8.00;92.48
11987;BME280;6053;51.382;6.768;2023-02-15T02:10:12;102487.03;;;7.91;92.01
11987;BME280;6053;51.382;6.768;2023-02-15T02:12:44;102483.63;;;7.89;92.77
11987;BME280;6053;51.382;6.768;2023-02-15T02:15:14;102485.50;;;7.96;92.64
11987;BME280;6053;51.382;6.768;2023-02-15T02:17:52;102481.03;;;7.95;92.37
11987;BME280;6053;51.382;6.768;2023-02-15T02:20:52;102482.56;;;7.98;92.71
11987;BME280;6053;51.382;6.768;2023-02-15T02:23:38;102477.25;;;7.88;92.79
11987;BME280;6053;51.382;6.768;2023-02-15T02:33:11;102459.56;;;7.99;92.10
11987;BME280;6053;51.382;6.768;2023-02-15T02:35:47;102465.91;;;7.91;92.50
11987;BME280;6053;51.382;6.768;2023-02-15T02:38:23;102458.69;;;7.90;92.16
11987;BME280;6053;51.382;6.768;2023-02-15T02:40:59;102466.09;;;7.90;92.64
11987;BME280;6053;51.382;6.768;2023-02-15T02:43:37;102458.88;;;7.89;92.24
11987;BME280;6053;51.382;6.768;2023-02-15T02:46:13;102452.03;;;7.85;91.95
11987;BME280;6053;51.382;6.768;2023-02-15T02:48:47;102458.38;;;7.85;92.00
11987;BME280;6053;51.382;6.768;2023-02-15T02:51:16;102452.72;;;7.78;92.57
11987;BME280;6053;51.382;6.768;2023-02-15T02:53:51;102440.34;;;7.83;90.87
11987;BME280;6053;51.382;6.768;2023-02-15T02:56:26;102441.72;;;7.78;92.38
11987;BME280;6053;51.382;6.768;2023-02-15T02:59:01;102435.38;;;7.78;92.49
11987;BME280;6053;51.382;6.768;2023-02-15T03:01:35;102428.66;;;7.56;89.92
11987;BME280;6053;51.382;6.768;2023-02-15T03:04:11;102431.59;;;7.79;92.76
11987;BME280;6053;51.382;6.768;2023-02-15T03:06:46;102432.25;;;7.89;92.09
11987;BME280;6053;51.382;6.768;2023-02-15T03:09:21;102425.03;;;7.80;92.28
11987;BME280;6053;51.382;6.768;2023-02-15T03:11:51;102428.47;;;7.90;91.47
11987;BME280;6053;51.382;6.768;2023-02-15T03:14:20;102431.06;;;7.84;89.46
11987;BME280;6053;51.382;6.768;2023-02-15T03:16:50;102429.34;;;7.83;91.43
11987;BME280;6053;51.382;6.768;2023-02-15T03:19:25;102421.25;;;7.81;91.47
11987;BME280;6053;51.382;6.768;2023-02-15T03:21:57;102424.53;;;7.76;92.11
11987;BME280;6053;51.382;6.768;2023-02-15T03:24:39;102425.56;;;7.75;92.08
11987;BME280;6053;51.382;6.768;2023-02-15T03:27:13;102422.97;;;7.74;91.75
11987;BME280;6053;51.382;6.768;2023-02-15T03:29:45;102421.81;;;7.68;91.97
11987;BME280;6053;51.382;6.768;2023-02-15T03:32:16;102417.69;;;7.72;92.19
11987;BME280;6053;51.382;6.768;2023-02-15T03:34:47;102430.38;;;7.65;92.43
11987;BME280;6053;51.382;6.768;2023-02-15T03:37:20;102424.56;;;7.68;91.71
11987;BME280;6053;51.382;6.768;2023-02-15T03:39:55;102426.06;;;7.71;91.68
11987;BME280;6053;51.382;6.768;2023-02-15T03:42:53;102420.25;;;7.66;92.15
11987;BME280;6053;51.382;6.768;2023-02-15T03:45:29;102424.91;;;7.65;91.74
11987;BME280;6053;51.382;6.768;2023-02-15T03:48:00;102415.28;;;7.69;91.87
11987;BME280;6053;51.382;6.768;2023-02-15T03:50:33;102414.91;;;7.64;92.02
11987;BME280;6053;51.382;6.768;2023-02-15T03:53:22;102421.44;;;7.63;91.93
11987;BME280;6053;51.382;6.768;2023-02-15T03:55:54;102418.72;;;7.63;91.77
11987;BME280;6053;51.382;6.768;2023-02-15T03:58:23;102414.22;;;7.54;91.88
11987;BME280;6053;51.382;6.768;2023-02-15T04:01:17;102418.00;;;7.61;91.88
11987;BME280;6053;51.382;6.768;2023-02-15T04:04:07;102419.03;;;7.60;91.28
11987;BME280;6053;51.382;6.768;2023-02-15T04:06:38;102416.16;;;7.62;91.90
11987;BME280;6053;51.382;6.768;2023-02-15T04:09:07;102413.06;;;7.65;91.64
11987;BME280;6053;51.382;6.768;2023-02-15T04:11:53;102412.16;;;7.64;91.57
11987;BME280;6053;51.382;6.768;2023-02-15T04:14:21;102406.69;;;7.64;91.43
11987;BME280;6053;51.382;6.768;2023-02-15T04:17:08;102405.66;;;7.65;91.20
11987;BME280;6053;51.382;6.768;2023-02-15T04:19:37;102409.09;;;7.59;91.34
11987;BME280;6053;51.382;6.768;2023-02-15T04:22:24;102412.88;;;7.58;91.41
11987;BME280;6053;51.382;6.768;2023-02-15T04:25:10;102405.66;;;7.49;91.76
11987;BME280;6053;51.382;6.768;2023-02-15T04:27:41;102414.56;;;7.51;91.62
11987;BME280;6053;51.382;6.768;2023-02-15T04:30:11;102408.75;;;7.46;91.70
11987;BME280;6053;51.382;6.768;2023-02-15T04:32:40;102412.19;;;7.48;92.06
11987;BME280;6053;51.382;6.768;2023-02-15T04:35:09;102412.53;;;7.45;91.34
11987;BME280;6053;51.382;6.768;2023-02-15T04:37:40;102410.66;;;7.45;91.68
11987;BME280;6053;51.382;6.768;2023-02-15T04:40:12;102407.22;;;7.35;92.09
11987;BME280;6053;51.382;6.768;2023-02-15T04:42:43;102413.72;;;7.42;92.08
11987;BME280;6053;51.382;6.768;2023-02-15T04:45:11;102402.91;;;7.32;91.59
11987;BME280;6053;51.382;6.768;2023-02-15T04:47:40;102404.28;;;7.37;91.62
11987;BME280;6053;51.382;6.768;2023-02-15T04:50:10;102406.72;;;7.48;90.55
11987;BME280;6053;51.382;6.768;2023-02-15T04:52:40;102400.66;;;7.44;90.79
11987;BME280;6053;51.382;6.768;2023-02-15T04:55:08;102400.19;;;7.24;88.79
11987;BME280;6053;51.382;6.768;2023-02-15T04:57:37;102397.59;;;7.23;92.92
11987;BME280;6053;51.382;6.768;2023-02-15T05:00:07;102389.34;;;7.23;91.76
11987;BME280;6053;51.382;6.768;2023-02-15T05:02:36;102393.97;;;7.30;92.05
11987;BME280;6053;51.382;6.768;2023-02-15T05:05:05;102400.19;;;7.24;92.23
11987;BME280;6053;51.382;6.768;2023-02-15T05:07:34;102396.56;;;7.32;92.63
11987;BME280;6053;51.382;6.768;2023-02-15T05:10:05;102401.88;;;7.33;91.56
11987;BME280;6053;51.382;6.768;2023-02-15T05:12:34;102388.84;;;7.36;91.75
11987;BME280;6053;51.382;6.768;2023-02-15T05:15:02;102389.00;;;7.34;91.46
11987;BME280;6053;51.382;6.768;2023-02-15T05:17:31;102389.53;;;7.29;91.56
11987;BME280;6053;51.382;6.768;2023-02-15T05:19:59;102385.59;;;7.32;91.60
11987;BME280;6053;51.382;6.768;2023-02-15T05:22:28;102383.00;;;7.30;91.50
11987;BME280;6053;51.382;6.768;2023-02-15T05:24:57;102377.50;;;7.30;91.53
11987;BME280;6053;51.382;6.768;2023-02-15T05:27:44;102373.06;;;7.29;91.41
11987;BME280;6053;51.382;6.768;2023-02-15T05:30:31;102376.66;;;7.22;91.55
11987;BME280;6053;51.382;6.768;2023-02-15T05:33:00;102377.66;;;7.21;91.67
11987;BME280;6053;51.382;6.768;2023-02-15T05:35:29;102374.41;;;7.17;91.52
11987;BME280;6053;51.382;6.768;2023-02-15T05:37:57;102369.44;;;7.21;91.72
11987;BME280;6053;51.382;6.768;2023-02-15T05:40:26;102364.31;;;7.26;91.23
11987;BME280;6053;51.382;6.768;2023-02-15T05:42:56;102369.97;;;7.24;91.41
11987;BME280;6053;51.382;6.768;2023-02-15T05:45:25;102365.84;;;7.20;91.35
11987;BME280;6053;51.382;6.768;2023-02-15T05:47:53;102363.44;;;7.17;91.84
11987;BME280;6053;51.382;6.768;2023-02-15T05:50:22;102358.13;;;7.16;90.41
11987;BME280;6053;51.382;6.768;2023-02-15T05:52:51;102356.41;;;7.15;91.44
11987;BME280;6053;51.382;6.768;2023-02-15T05:55:20;102358.63;;;7.19;91.55
11987;BME280;6053;51.382;6.768;2023-02-15T05:57:49;102357.09;;;7.17;91.54
11987;BME280;6053;51.382;6.768;2023-02-15T06:00:19;102361.22;;;7.13;91.22
11987;BME280;6053;51.382;6.768;2023-02-15T06:02:48;102361.91;;;7.15;91.45
11987;BME280;6053;51.382;6.768;2023-02-15T06:05:16;102365.66;;;7.14;91.30
11987;BME280;6053;51.382;6.768;2023-02-15T06:07:45;102374.75;;;7.14;91.63
11987;BME280;6053;51.382;6.768;2023-02-15T06:10:14;102375.25;;;7.09;91.48
11987;BME280;6053;51.382;6.768;2023-02-15T06:12:44;102364.81;;;7.05;91.15
11987;BME280;6053;51.382;6.768;2023-02-15T06:15:12;102360.50;;;7.02;91.24
11987;BME280;6053;51.382;6.768;2023-02-15T06:17:43;102371.81;;;7.07;91.42
11987;BME280;6053;51.382;6.768;2023-02-15T06:20:12;102369.78;;;7.09;91.34
11987;BME280;6053;51.382;6.768;2023-02-15T06:22:41;102377.50;;;7.06;91.30
11987;BME280;6053;51.382;6.768;2023-02-15T06:25:09;102369.44;;;7.13;90.71
11987;BME280;6053;51.382;6.768;2023-02-15T06:27:40;102372.19;;;7.13;89.37
11987;BME280;6053;51.382;6.768;2023-02-15T06:30:10;102369.50;;;6.54;90.18
11987;BME280;6053;51.382;6.768;2023-02-15T06:32:39;102372.59;;;6.59;91.53
11987;BME280;6053;51.382;6.768;2023-02-15T06:35:10;102374.19;;;6.86;90.96
11987;BME280;6053;51.382;6.768;2023-02-15T06:37:38;102375.56;;;6.82;92.48
11987;BME280;6053;51.382;6.768;2023-02-15T06:40:08;102375.34;;;6.67;89.10
11987;BME280;6053;51.382;6.768;2023-02-15T06:42:37;102383.41;;;6.77;92.38
11987;BME280;6053;51.382;6.768;2023-02-15T06:45:06;102385.75;;;6.55;87.53
11987;BME280;6053;51.382;6.768;2023-02-15T06:47:35;102385.09;;;6.61;93.08
11987;BME280;6053;51.382;6.768;2023-02-15T06:50:04;102385.97;;;6.70;92.52
11987;BME280;6053;51.382;6.768;2023-02-15T06:52:35;102386.34;;;6.75;92.24
11987;BME280;6053;51.382;6.768;2023-02-15T06:55:04;102380.88;;;6.33;88.69
11987;BME280;6053;51.382;6.768;2023-02-15T06:57:32;102386.34;;;6.33;94.38
11987;BME280;6053;51.382;6.768;2023-02-15T07:00:02;102382.50;;;6.60;91.88
11987;BME280;6053;51.382;6.768;2023-02-15T07:02:32;102387.19;;;6.76;91.12
11987;BME280;6053;51.382;6.768;2023-02-15T07:05:00;102385.28;;;6.26;93.89
11987;BME280;6053;51.382;6.768;2023-02-15T07:07:30;102378.50;;;6.38;93.25
11987;BME280;6053;51.382;6.768;2023-02-15T07:09:59;102382.78;;;6.06;90.93
11987;BME280;6053;51.382;6.768;2023-02-15T07:12:28;102374.78;;;5.87;91.47
11987;BME280;6053;51.382;6.768;2023-02-15T07:15:15;102373.19;;;6.02;95.73
11987;BME280;6053;51.382;6.768;2023-02-15T07:17:44;102381.47;;;6.10;92.73
11987;BME280;6053;51.382;6.768;2023-02-15T07:20:14;102374.69;;;5.71;89.70
11987;BME280;6053;51.382;6.768;2023-02-15T07:22:44;102376.31;;;6.07;94.62
11987;BME280;6053;51.382;6.768;2023-02-15T07:25:14;102365.22;;;5.91;96.27
11987;BME280;6053;51.382;6.768;2023-02-15T07:27:43;102367.91;;;5.57;89.72
11987;BME280;6053;51.382;6.768;2023-02-15T07:30:15;102350.06;;;5.79;94.96
11987;BME280;6053;51.382;6.768;2023-02-15T07:32:44;102358.78;;;6.34;91.93
11987;BME280;6053;51.382;6.768;2023-02-15T07:35:32;102354.50;;;5.98;98.65
11987;BME280;6053;51.382;6.768;2023-02-15T07:38:01;102354.19;;;5.83;94.17
11987;BME280;6053;51.382;6.768;2023-02-15T07:40:31;102347.78;;;6.26;93.02
11987;BME280;6053;51.382;6.768;2023-02-15T07:42:59;102342.59;;;6.15;94.56
11987;BME280;6053;51.382;6.768;2023-02-15T07:45:28;102337.63;;;5.58;95.08
11987;BME280;6053;51.382;6.768;2023-02-15T07:47:56;102339.06;;;5.44;95.69
11987;BME280;6053;51.382;6.768;2023-02-15T07:50:25;102337.19;;;6.31;96.23
11987;BME280;6053;51.382;6.768;2023-02-15T07:52:53;102332.28;;;5.83;94.64
11987;BME280;6053;51.382;6.768;2023-02-15T07:55:22;102330.53;;;6.42;93.19
11987;BME280;6053;51.382;6.768;2023-02-15T07:57:53;102332.41;;;5.99;88.74
11987;BME280;6053;51.382;6.768;2023-02-15T08:00:23;102329.09;;;5.17;95.51
11987;BME280;6053;51.382;6.768;2023-02-15T08:02:54;102326.66;;;5.84;92.09
11987;BME280;6053;51.382;6.768;2023-02-15T08:05:37;102328.13;;;6.39;92.94
11987;BME280;6053;51.382;6.768;2023-02-15T08:08:06;102323.94;;;6.10;92.15
11987;BME280;6053;51.382;6.768;2023-02-15T08:10:36;102323.78;;;6.20;92.38
11987;BME280;6053;51.382;6.768;2023-02-15T08:13:23;102323.03;;;6.52;89.00
11987;BME280;6053;51.382;6.768;2023-02-15T08:15:52;102323.34;;;6.41;93.28
11987;BME280;6053;51.382;6.768;2023-02-15T08:18:20;102325.06;;;6.42;91.41
11987;BME280;6053;51.382;6.768;2023-02-15T08:20:49;102316.72;;;6.60;92.32
11987;BME280;6053;51.382;6.768;2023-02-15T08:23:18;102316.78;;;6.26;93.80
11987;BME280;6053;51.382;6.768;2023-02-15T08:25:47;102319.06;;;6.47;89.35
11987;BME280;6053;51.382;6.768;2023-02-15T08:28:15;102316.72;;;5.83;89.69
11987;BME280;6053;51.382;6.768;2023-02-15T08:30:45;102307.94;;;5.46;95.58
11987;BME280;6053;51.382;6.768;2023-02-15T08:33:14;102305.97;;;5.12;96.92
11987;BME280;6053;51.382;6.768;2023-02-15T08:35:45;102304.56;;;5.52;94.19
11987;BME280;6053;51.382;6.768;2023-02-15T08:38:14;102300.25;;;5.75;99.15
11987;BME280;6053;51.382;6.768;2023-02-15T08:40:42;102303.75;;;5.59;94.18
11987;BME280;6053;51.382;6.768;2023-02-15T08:43:11;102297.78;;;6.24;95.54
11987;BME280;6053;51.382;6.768;2023-02-15T08:45:40;102300.50;;;6.24;92.72
11987;BME280;6053;51.382;6.768;2023-02-15T08:48:10;102300.97;;;5.51;94.11
11987;BME280;6053;51.382;6.768;2023-02-15T08:50:38;102300.88;;;5.69;98.64
11987;BME280;6053;51.382;6.768;2023-02-15T08:53:07;102295.69;;;6.18;91.88
11987;BME280;6053;51.382;6.768;2023-02-15T08:55:35;102292.22;;;5.48;94.27
11987;BME280;6053;51.382;6.768;2023-02-15T08:58:04;102292.97;;;5.92;93.36
11987;BME280;6053;51.382;6.768;2023-02-15T09:00:32;102287.09;;;5.53;93.06
11987;BME280;6053;51.382;6.768;2023-02-15T09:03:01;102285.53;;;6.02;94.47
11987;BME280;6053;51.382;6.768;2023-02-15T09:05:31;102285.38;;;6.04;93.28
11987;BME280;6053;51.382;6.768;2023-02-15T09:07:59;102285.34;;;5.43;92.46
11987;BME280;6053;51.382;6.768;2023-02-15T09:10:28;102281.50;;;5.88;93.41
11987;BME280;6053;51.382;6.768;2023-02-15T09:12:57;102288.47;;;5.83;93.42
11987;BME280;6053;51.382;6.768;2023-02-15T09:15:25;102292.91;;;5.50;92.87
11987;BME280;6053;51.382;6.768;2023-02-15T09:17:54;102283.63;;;5.77;95.74
11987;BME280;6053;51.382;6.768;2023-02-15T09:20:22;102291.41;;;5.55;95.22
11987;BME280;6053;51.382;6.768;2023-02-15T09:22:53;102287.03;;;5.97;90.92
11987;BME280;6053;51.382;6.768;2023-02-15T09:25:26;102276.72;;;5.90;90.95
11987;BME280;6053;51.382;6.768;2023-02-15T09:27:54;102290.03;;;5.85;90.06
11987;BME280;6053;51.382;6.768;2023-02-15T09:30:23;102297.63;;;5.65;93.97
11987;BME280;6053;51.382;6.768;2023-02-15T09:32:52;102295.63;;;5.76;90.61
11987;BME280;6053;51.382;6.768;2023-02-15T09:35:21;102300.22;;;5.67;92.53
11987;BME280;6053;51.382;6.768;2023-02-15T09:37:49;102288.84;;;6.22;91.76
11987;BME280;6053;51.382;6.768;2023-02-15T09:40:19;102292.13;;;5.91;88.10
11987;BME280;6053;51.382;6.768;2023-02-15T09:43:24;102297.84;;;6.06;87.39
11987;BME280;6053;51.382;6.768;2023-02-15T09:46:15;102291.28;;;5.65;88.51
11987;BME280;6053;51.382;6.768;2023-02-15T09:48:51;102288.53;;;5.91;87.63
11987;BME280;6053;51.382;6.768;2023-02-15T09:54:38;102290.97;;;6.45;90.00
11987;BME280;6053;51.382;6.768;2023-02-15T09:57:20;102281.59;;;7.45;84.41
11987;BME280;6053;51.382;6.768;2023-02-15T09:59:58;102291.81;;;7.68;78.92
11987;BME280;6053;51.382;6.768;2023-02-15T10:02:44;102284.97;;;7.64;80.59
11987;BME280;6053;51.382;6.768;2023-02-15T10:05:25;102298.31;;;7.83;79.08
11987;BME280;6053;51.382;6.768;2023-02-15T10:08:20;102290.03;;;7.91;77.79
11987;BME280;6053;51.382;6.768;2023-02-15T10:11:01;102294.03;;;7.80;76.94
11987;BME280;6053;51.382;6.768;2023-02-15T10:14:03;102287.97;;;8.41;77.28
11987;BME280;6053;51.382;6.768;2023-02-15T10:16:43;102289.28;;;8.53;76.15
11987;BME280;6053;51.382;6.768;2023-02-15T10:19:19;102287.66;;;8.27;76.11
11987;BME280;6053;51.382;6.768;2023-02-15T10:22:02;102288.19;;;9.08;74.88
11987;BME280;6053;51.382;6.768;2023-02-15T10:24:56;102285.94;;;8.89;74.91
11987;BME280;6053;51.382;6.768;2023-02-15T10:27:31;102283.31;;;8.72;76.94
11987;BME280;6053;51.382;6.768;2023-02-15T10:30:08;102284.47;;;9.01;72.04
11987;BME280;6053;51.382;6.768;2023-02-15T10:32:45;102282.88;;;8.84;72.94
11987;BME280;6053;51.382;6.768;2023-02-15T10:35:22;102268.25;;;8.60;77.46
11987;BME280;6053;51.382;6.768;2023-02-15T10:38:15;102281.16;;;8.60;73.41
11987;BME280;6053;51.382;6.768;2023-02-15T10:40:55;102276.19;;;8.78;72.84
11987;BME280;6053;51.382;6.768;2023-02-15T10:44:03;102271.06;;;8.52;74.47
11987;BME280;6053;51.382;6.768;2023-02-15T10:46:54;102268.44;;;8.59;74.32
11987;BME280;6053;51.382;6.768;2023-02-15T10:49:38;102272.91;;;8.83;74.33
11987;BME280;6053;51.382;6.768;2023-02-15T10:52:21;102271.00;;;8.29;75.67
11987;BME280;6053;51.382;6.768;2023-02-15T10:55:02;102271.84;;;7.90;75.53
11987;BME280;6053;51.382;6.768;2023-02-15T10:57:40;102271.69;;;7.92;74.77
11987;BME280;6053;51.382;6.768;2023-02-15T11:00:15;102274.09;;;7.95;76.46
11987;BME280;6053;51.382;6.768;2023-02-15T11:03:02;102271.34;;;7.87;77.87
11987;BME280;6053;51.382;6.768;2023-02-15T11:05:41;102254.88;;;7.87;76.53
11987;BME280;6053;51.382;6.768;2023-02-15T11:08:17;102261.28;;;8.18;77.62
11987;BME280;6053;51.382;6.768;2023-02-15T11:10:49;102257.13;;;8.14;76.50
11987;BME280;6053;51.382;6.768;2023-02-15T11:13:22;102265.63;;;8.36;76.29
11987;BME280;6053;51.382;6.768;2023-02-15T11:15:55;102258.03;;;8.46;76.88
11987;BME280;6053;51.382;6.768;2023-02-15T11:18:31;102263.00;;;8.50;76.04
11987;BME280;6053;51.382;6.768;2023-02-15T11:21:03;102267.69;;;8.42;74.60
11987;BME280;6053;51.382;6.768;2023-02-15T11:23:39;102270.44;;;8.42;75.13
11987;BME280;6053;51.382;6.768;2023-02-15T11:26:14;102268.72;;;8.41;75.07
11987;BME280;6053;51.382;6.768;2023-02-15T11:28:49;102261.16;;;8.43;74.34
11987;BME280;6053;51.382;6.768;2023-02-15T11:31:21;102260.66;;;8.39;75.40
11987;BME280;6053;51.382;6.768;2023-02-15T11:33:55;102256.50;;;8.43;74.74
11987;BME280;6053;51.382;6.768;2023-02-15T11:36:27;102241.66;;;8.53;78.88
11987;BME280;6053;51.382;6.768;2023-02-15T11:39:00;102253.31;;;8.55;75.08
11987;BME280;6053;51.382;6.768;2023-02-15T11:41:34;102252.53;;;8.46;74.84
11987;BME280;6053;51.382;6.768;2023-02-15T11:44:10;102238.84;;;8.61;74.35
11987;BME280;6053;51.382;6.768;2023-02-15T11:46:42;102241.47;;;8.54;73.20
11987;BME280;6053;51.382;6.768;2023-02-15T11:49:23;102230.34;;;8.70;74.58
11987;BME280;6053;51.382;6.768;2023-02-15T11:51:52;102226.88;;;8.77;75.81
11987;BME280;6053;51.382;6.768;2023-02-15T11:54:26;102226.78;;;8.85;75.31
11987;BME280;6053;51.382;6.768;2023-02-15T11:56:58;102217.25;;;8.95;74.02
11987;BME280;6053;51.382;6.768;2023-02-15T11:59:31;102210.13;;;9.01;73.11
11987;BME280;6053;51.382;6.768;2023-02-15T12:02:01;102205.81;;;9.21;74.85
11987;BME280;6053;51.382;6.768;2023-02-15T12:04:34;102212.56;;;9.19;73.35
11987;BME280;6053;51.382;6.768;2023-02-15T12:07:13;102202.94;;;9.15;72.95
11987;BME280;6053;51.382;6.768;2023-02-15T12:09:48;102202.84;;;9.08;71.54
11987;BME280;6053;51.382;6.768;2023-02-15T12:12:22;102193.47;;;9.17;75.09
11987;BME280;6053;51.382;6.768;2023-02-15T12:14:53;102181.13;;;9.28;70.97
11987;BME280;6053;51.382;6.768;2023-02-15T12:17:24;102175.81;;;9.41;74.95
11987;BME280;6053;51.382;6.768;2023-02-15T12:19:56;102178.09;;;9.38;70.47
11987;BME280;6053;51.382;6.768;2023-02-15T12:22:28;102175.75;;;9.50;70.91
11987;BME280;6053;51.382;6.768;2023-02-15T12:25:00;102169.28;;;9.57;71.81
11987;BME280;6053;51.382;6.768;2023-02-15T12:27:32;102172.00;;;9.72;69.58
11987;BME280;6053;51.382;6.768;2023-02-15T12:30:06;102161.94;;;9.79;73.34
11987;BME280;6053;51.382;6.768;2023-02-15T12:32:47;102170.38;;;9.78;74.68
11987;BME280;6053;51.382;6.768;2023-02-15T12:35:25;102177.28;;;9.88;72.13
11987;BME280;6053;51.382;6.768;2023-02-15T12:37:57;102175.81;;;9.86;72.62
11987;BME280;6053;51.382;6.768;2023-02-15T12:40:28;102170.91;;;10.03;69.11
11987;BME280;6053;51.382;6.768;2023-02-15T12:42:58;102172.41;;;10.05;67.66
11987;BME280;6053;51.382;6.768;2023-02-15T12:45:28;102158.56;;;9.99;70.30
11987;BME280;6053;51.382;6.768;2023-02-15T12:48:24;102154.25;;;10.11;68.04
11987;BME280;6053;51.382;6.768;2023-02-15T12:51:08;102154.03;;;10.12;68.16
11987;BME280;6053;51.382;6.768;2023-02-15T12:53:38;102151.81;;;10.23;66.49
11987;BME280;6053;51.382;6.768;2023-02-15T12:56:08;102157.03;;;10.32;65.66
11987;BME280;6053;51.382;6.768;2023-02-15T12:58:39;102151.47;;;10.26;65.89
11987;BME280;6053;51.382;6.768;2023-02-15T13:01:13;102148.03;;;10.24;67.43
11987;BME280;6053;51.382;6.768;2023-02-15T13:03:57;102143.94;;;10.34;66.83
11987;BME280;6053;51.382;6.768;2023-02-15T13:06:29;102148.50;;;10.49;65.98
11987;BME280;6053;51.382;6.768;2023-02-15T13:09:06;102139.66;;;10.53;65.86
11987;BME280;6053;51.382;6.768;2023-02-15T13:11:37;102134.38;;;10.58;66.54
11987;BME280;6053;51.382;6.768;2023-02-15T13:14:19;102127.69;;;10.68;66.95
11987;BME280;6053;51.382;6.768;2023-02-15T13:16:51;102123.34;;;10.58;67.79
11987;BME280;6053;51.382;6.768;2023-02-15T13:19:29;102115.22;;;10.50;68.23
11987;BME280;6053;51.382;6.768;2023-02-15T13:22:05;102120.19;;;10.61;67.66
11987;BME280;6053;51.382;6.768;2023-02-15T13:24:37;102110.09;;;10.47;70.26
11987;BME280;6053;51.382;6.768;2023-02-15T13:27:12;102105.00;;;10.72;66.36
11987;BME280;6053;51.382;6.768;2023-02-15T13:29:44;102103.44;;;10.63;69.13
11987;BME280;6053;51.382;6.768;2023-02-15T13:32:24;102095.22;;;10.70;66.23
11987;BME280;6053;51.382;6.768;2023-02-15T13:34:57;102101.19;;;10.73;67.50
11987;BME280;6053;51.382;6.768;2023-02-15T13:37:48;102104.97;;;10.94;66.34
11987;BME280;6053;51.382;6.768;2023-02-15T13:40:22;102099.72;;;11.05;65.25
11987;BME280;6053;51.382;6.768;2023-02-15T13:42:56;102093.56;;;11.03;66.00
11987;BME280;6053;51.382;6.768;2023-02-15T13:45:35;102088.56;;;10.92;67.96
11987;BME280;6053;51.382;6.768;2023-02-15T13:48:15;102085.31;;;11.10;63.94
11987;BME280;6053;51.382;6.768;2023-02-15T13:51:04;102082.78;;;11.15;63.91